Shercock, Ireland
Current Conditions -  °F | °C
As of 3:30 AM on Saturday 25 Oct 2014 (Local Time) from EIDW Reporting Station
Few Clouds Few Clouds  
Wind Chill: 50°   Ceiling: Unl
Heat Index: 50°   Visibility: 6mi
Dew Point: 43°   Wind: 17mph
Humidity: 76%   Direction: 230°SW
Pressure: 29.83"   Gusts: NA
Location:  54°N, 6.9°W
Report Text: EIDW 250230Z 23015KT 9999 FEW018 10/06 Q1010 NOSIG
Loading
Personal Weather Stations






























Interactive Weather Map
Tropical Storm Tracking
New forecast layout! Learn more

10-Day Weather Forecast

Advertisements
Track Severe Weather on mobile